Estrela De Sesimbra — CUKV2 — position and weather

sailwx.info

Track history (hours):
 
Tides and Currents Weather Stations Pressure Air Temp Water Temp Dewpoint Dewpoint Depression Visibility Wind Speed Wind Dir Waves Ship Positions

Estrela De Sesimbra

Last reported at 2018-May-23 14:40 UTC. Time now 2018-May-23 15:13 UTC.
Position N 38°26' W 009°07'.

Length 24 m; draft 3.2 m.

Type: Fishing. MMSI: 263208000.

Date/timePositionNaut miles runAvg speedWind from/ knotsBaromVisibWave heightAir tempDewpointWater temp
2018-May-23 14:40N 38°26' W 009°07'0 0.0
2018-May-23 14:23N 38°26' W 009°07'0 0.0
2018-May-23 14:00N 38°26' W 009°07'0 0.0
2018-May-23 13:31N 38°26' W 009°07'0 0.0
2018-May-23 12:57N 38°26' W 009°07'0 0.0
2018-May-23 12:30N 38°26' W 009°07'0 0.0
2018-May-23 12:00N 38°26' W 009°07'0 0.0
2018-May-23 11:31N 38°26' W 009°07'0 0.0
2018-May-23 11:01N 38°26' W 009°07'0 0.0
2018-May-23 10:30N 38°26' W 009°07'0 0.0
2018-May-23 10:00N 38°26' W 009°07'0 0.0
2018-May-23 09:28N 38°26' W 009°07'0 0.2
2018-May-23 08:47N 38°26' W 009°07'5 6.7
2018-May-23 08:00N 38°24' W 009°13'4 8.1
2018-May-23 07:30N 38°25' W 009°18'4 8.7
2018-May-23 06:59N 38°26' W 009°24'4 8.6
2018-May-23 06:28N 38°27' W 009°29'4 8.6
2018-May-23 06:00N 38°30' W 009°33'5 9.0
2018-May-23 05:30N 38°33' W 009°37'4 9.1
2018-May-23 05:00N 38°36' W 009°41'5 9.1
2018-May-23 04:29N 38°40' W 009°45'4 9.1
2018-May-23 04:00N 38°43' W 009°49'5 8.9
2018-May-23 03:29N 38°46' W 009°53'4 9.3
2018-May-23 03:01N 38°49' W 009°56'6 8.9
2018-May-23 02:17N 38°54' W 010°02'3 9.0
2018-May-23 02:00N 38°56' W 010°04'15 0.7
2018-May-22 03:49N 38°43' W 009°57'3 9.0
2018-May-22 03:27N 38°41' W 009°53'4 8.9
2018-May-22 03:00N 38°40' W 009°49'5 8.8
2018-May-22 02:29N 38°37' W 009°44'4 8.9
2018-May-22 01:59N 38°35' W 009°39'4 8.7
2018-May-22 01:30N 38°33' W 009°34'4 9.0
2018-May-22 01:00N 38°31' W 009°29'4 8.9
2018-May-22 00:30N 38°29' W 009°24'5 8.9
2018-May-21 23:58N 38°26' W 009°18'4 9.1
2018-May-21 23:30N 38°24' W 009°14'6 8.9
2018-May-21 22:51N 38°26' W 009°07'0 0.8
2018-May-21 22:26N 38°26' W 009°06'1 0.8
2018-May-21 21:33N 38°26' W 009°07'0 9.2
2018-May-21 21:30N 38°26' W 009°07'0 0.3
2018-May-21 20:02N 38°26' W 009°07'0 0.0
2018-May-21 19:54N 38°26' W 009°07'0 0.4
2018-May-21 19:25N 38°26' W 009°07'0 0.0
2018-May-21 18:57N 38°26' W 009°07'0 0.0
2018-May-21 18:30N 38°26' W 009°07'0 0.0
2018-May-21 17:56N 38°26' W 009°07'0 0.0
2018-May-21 17:30N 38°26' W 009°07'0 0.0
2018-May-21 17:00N 38°26' W 009°07'0 0.0
2018-May-21 16:25N 38°26' W 009°07'0 0.0
2018-May-21 15:57N 38°26' W 009°07'0 0.0
2018-May-21 15:06N 38°26' W 009°07'0 0.0
2018-May-21 11:28N 38°26' W 009°07'0 0.0
2018-May-21 10:53N 38°26' W 009°07'0 0.0
2018-May-21 10:24N 38°26' W 009°07'0 0.0
2018-May-21 09:59N 38°26' W 009°07'0 0.0
2018-May-21 09:26N 38°26' W 009°07'0 0.0
2018-May-21 08:58N 38°26' W 009°07'0 0.0
2018-May-21 07:41N 38°26' W 009°07'0 0.0
2018-May-21 07:22N 38°26' W 009°07'0 0.0
2018-May-21 05:21N 38°26' W 009°07'0 0.0
2018-May-21 04:59N 38°26' W 009°07'0 0.0
2018-May-21 04:30N 38°26' W 009°07'0 0.0
2018-May-21 04:00N 38°26' W 009°07'0 0.0
2018-May-21 03:29N 38°26' W 009°07'0 0.0
2018-May-21 03:00N 38°26' W 009°07'0 0.0
2018-May-21 02:30N 38°26' W 009°07'0 0.0
2018-May-21 02:00N 38°26' W 009°07'0 0.0
2018-May-21 01:28N 38°26' W 009°07'0 0.0
2018-May-21 01:00N 38°26' W 009°07'0 0.0
2018-May-21 00:30N 38°26' W 009°07'0 0.0
2018-May-21 00:00N 38°26' W 009°07'0 0.0
2018-May-20 23:30N 38°26' W 009°07'0 0.0
2018-May-20 23:00N 38°26' W 009°07'0 0.0
2018-May-20 22:30N 38°26' W 009°07'0 0.0
2018-May-20 22:00N 38°26' W 009°07'0 0.0
2018-May-20 21:29N 38°26' W 009°07'0 0.0
2018-May-20 21:00N 38°26' W 009°07'0 0.0
2018-May-20 20:30N 38°26' W 009°07'0 0.0
2018-May-20 19:59N 38°26' W 009°07'0 0.0
2018-May-20 19:30N 38°26' W 009°07'0 0.0
2018-May-20 19:00N 38°26' W 009°07'0 0.0
2018-May-20 18:27N 38°26' W 009°07'0 0.0
2018-May-20 18:00N 38°26' W 009°07'0 0.3
2018-May-20 17:27N 38°26' W 009°07'0 0.0
2018-May-20 17:00N 38°26' W 009°07'4 5.8
2018-May-20 16:16N 38°24' W 009°12'2 9.1
2018-May-20 16:00N 38°25' W 009°14'5 9.2
2018-May-20 15:30N 38°27' W 009°19'5 9.1
2018-May-20 15:00N 38°29' W 009°24'5 9.4
2018-May-20 14:30N 38°32' W 009°30'5 9.4
2018-May-20 14:00N 38°35' W 009°34'5 9.5
2018-May-20 13:30N 38°37' W 009°39'5 9.2
2018-May-20 13:00N 38°40' W 009°44'5 9.0
2018-May-20 12:30N 38°42' W 009°49'4 8.9
2018-May-20 12:00N 38°45' W 009°54'5 9.3
2018-May-20 11:30N 38°48' W 009°59'13 9.2
2018-May-20 10:05N 38°55' W 010°13'3 9.6
2018-May-20 09:49N 38°56' W 010°15'0 0.0
2018-May-20 04:46N 38°56' W 010°16'1 0.7
2018-May-20 03:56N 38°56' W 010°15'1 0.7
2018-May-20 02:33N 38°55' W 010°16'0 0.8
2018-May-20 02:27N 38°55' W 010°16'1 0.6
2018-May-20 00:16N 38°53' W 010°15'0 0.5
2018-May-19 23:56N 38°53' W 010°15'5 2.1
2018-May-19 21:22N 38°57' W 010°20'1 1.5
2018-May-19 20:58N 38°57' W 010°20'1 1.4
2018-May-19 20:30N 38°58' W 010°20'2 2.9
2018-May-19 19:58N 38°59' W 010°21'3 6.4
2018-May-19 19:30N 39°02' W 010°23'3 6.4
2018-May-19 19:00N 39°05' W 010°25'3 3.8
2018-May-19 18:10N 39°07' W 010°23'1 4.0
2018-May-19 18:00N 39°08' W 010°22'2 3.4
2018-May-19 17:29N 39°09' W 010°20'29 1.7
2018-May-19 00:31N 38°46' W 009°56'1 8.5
2018-May-19 00:24N 38°46' W 009°55'5 8.8
2018-May-18 23:53N 38°43' W 009°50'3 8.6
2018-May-18 23:30N 38°41' W 009°46'4 8.5
2018-May-18 23:00N 38°39' W 009°42'4 8.2
2018-May-18 22:30N 38°37' W 009°38'4 8.1
2018-May-18 22:00N 38°35' W 009°33'4 8.5
2018-May-18 21:30N 38°32' W 009°29'4 8.4
2018-May-18 21:00N 38°30' W 009°24'4 8.6
2018-May-18 20:30N 38°27' W 009°20'4 8.7
2018-May-18 20:00N 38°25' W 009°15'6 8.4
2018-May-18 19:17N 38°26' W 009°07'1 2.7
2018-May-18 19:00N 38°26' W 009°07'0 0.0
2018-May-18 18:26N 38°26' W 009°07'0 0.0
2018-May-18 13:37N 38°26' W 009°07'0 0.0
2018-May-18 13:25N 38°26' W 009°07'0 0.0
2018-May-18 13:00N 38°26' W 009°07'0 0.0
2018-May-18 12:30N 38°26' W 009°07'0 0.0
2018-May-18 11:59N 38°26' W 009°07'0 0.0
2018-May-18 11:17N 38°26' W 009°07'0 0.0
2018-May-18 10:55N 38°26' W 009°07'0 0.0
2018-May-18 10:21N 38°26' W 009°07'0 0.0
2018-May-18 10:01N 38°26' W 009°07'0 0.0
2018-May-18 09:30N 38°26' W 009°07'0 0.0
2018-May-18 09:00N 38°26' W 009°07'5 6.6
2018-May-18 08:13N 38°24' W 009°13'2 8.7
2018-May-18 07:59N 38°24' W 009°15'5 8.7
2018-May-18 07:25N 38°25' W 009°22'4 9.2
2018-May-18 07:01N 38°27' W 009°26'5 9.0
2018-May-18 06:26N 38°30' W 009°31'5 9.2
2018-May-18 05:56N 38°33' W 009°36'4 9.2
2018-May-18 05:31N 38°35' W 009°39'4 8.8
2018-May-18 05:00N 38°38' W 009°44'4 8.9
2018-May-18 04:30N 38°40' W 009°49'5 9.0
2018-May-18 03:58N 38°43' W 009°54'5 8.6
2018-May-18 03:25N 38°46' W 009°59'21 5.9
2018-May-17 23:52N 38°60' W 010°18'2 1.8
2018-May-17 22:55N 38°59' W 010°19'0 0.7
2018-May-17 22:27N 38°59' W 010°20'11 0.6
2018-May-17 05:01N 39°10' W 010°19'4 3.6
2018-May-17 03:58N 39°14' W 010°20'6 7.3
2018-May-17 03:10N 39°08' W 010°21'1 7.0
2018-May-17 02:59N 39°07' W 010°21'4 7.4
2018-May-17 02:30N 39°03' W 010°21'1 2.9
2018-May-17 02:00N 39°02' W 010°23'9 4.9
2018-May-17 00:11N 38°56' W 010°15'1 6.7
2018-May-16 23:58N 38°55' W 010°14'7 8.1
2018-May-16 23:08N 38°50' W 010°07'1 8.1
2018-May-16 23:00N 38°50' W 010°06'4 8.1
2018-May-16 22:30N 38°47' W 010°02'4 8.1
2018-May-16 21:58N 38°44' W 009°58'4 7.7
2018-May-16 21:30N 38°43' W 009°54'4 8.1
2018-May-16 21:00N 38°41' W 009°49'4 8.0
2018-May-16 20:30N 38°38' W 009°45'4 7.7
2018-May-16 20:00N 38°36' W 009°41'4 7.6
2018-May-16 19:30N 38°34' W 009°37'4 7.7
2018-May-16 18:59N 38°33' W 009°32'4 7.8
2018-May-16 18:30N 38°31' W 009°28'4 7.8
2018-May-16 18:01N 38°29' W 009°24'4 7.8
2018-May-16 17:29N 38°27' W 009°19'4 8.0
2018-May-16 17:01N 38°25' W 009°15'4 8.3
2018-May-16 16:29N 38°25' W 009°09'3 5.6
2018-May-16 16:01N 38°26' W 009°07'0 0.0
2018-May-16 15:30N 38°26' W 009°07'0 0.0
2018-May-16 15:00N 38°26' W 009°07'0 0.0
2018-May-16 14:31N 38°26' W 009°07'0 0.0
2018-May-16 14:00N 38°26' W 009°07'0 0.0
2018-May-16 13:30N 38°26' W 009°07'0 0.0
2018-May-16 12:59N 38°26' W 009°07'0 0.0
2018-May-16 12:28N 38°26' W 009°07'0 0.0
2018-May-16 12:01N 38°26' W 009°07'0 0.0
2018-May-16 11:28N 38°26' W 009°07'0 0.0
2018-May-16 11:00N 38°26' W 009°07'0 0.0
2018-May-16 10:30N 38°26' W 009°07'0 0.0
2018-May-16 10:01N 38°26' W 009°07'0 0.0
2018-May-16 09:31N 38°26' W 009°07'0 0.0
2018-May-16 09:00N 38°26' W 009°07'0 0.0
2018-May-16 08:31N 38°26' W 009°07'0 0.0
2018-May-16 08:00N 38°26' W 009°07'0 0.0
2018-May-16 07:29N 38°26' W 009°07'0 0.0
2018-May-16 07:00N 38°26' W 009°07'0 0.0
2018-May-16 06:30N 38°26' W 009°07'0 0.0
2018-May-16 06:00N 38°26' W 009°07'0 0.0
2018-May-16 05:30N 38°26' W 009°07'0 0.0
2018-May-16 05:00N 38°26' W 009°07'0 0.0
2018-May-16 04:30N 38°26' W 009°07'0 0.0
2018-May-16 04:00N 38°26' W 009°07'0 0.0
2018-May-16 03:30N 38°26' W 009°07'0 0.0
2018-May-16 03:00N 38°26' W 009°07'0 0.0
2018-May-16 02:29N 38°26' W 009°07'0 0.0
2018-May-16 01:59N 38°26' W 009°07'0 0.0
2018-May-16 01:30N 38°26' W 009°07'0 0.0
2018-May-16 00:59N 38°26' W 009°07'0 0.0
2018-May-16 00:30N 38°26' W 009°07'0 0.0
2018-May-16 00:00N 38°26' W 009°07'0 0.0
2018-May-15 23:30N 38°26' W 009°07'0 0.0
2018-May-15 23:00N 38°26' W 009°07'0 0.0
2018-May-15 22:30N 38°26' W 009°07'0 0.0
2018-May-15 22:00N 38°26' W 009°07'0 0.0
2018-May-15 21:29N 38°26' W 009°07'0 0.0
2018-May-15 20:59N 38°26' W 009°07'0 0.0
2018-May-15 20:30N 38°26' W 009°07'0 0.0
2018-May-15 19:59N 38°26' W 009°07'0 0.0
2018-May-15 19:29N 38°26' W 009°07'0 0.0
2018-May-15 19:00N 38°26' W 009°07'0 0.0
2018-May-15 18:30N 38°26' W 009°07'0 0.0
2018-May-15 18:00N 38°26' W 009°07'0 0.0
2018-May-15 17:30N 38°26' W 009°07'0 0.0
2018-May-15 16:53N 38°26' W 009°07'0 0.0
2018-May-15 16:27N 38°26' W 009°07'0 0.0
2018-May-15 15:58N 38°26' W 009°07'0 0.0
2018-May-15 15:30N 38°26' W 009°07'0 0.0
2018-May-15 15:00N 38°26' W 009°07'0 0.0
2018-May-15 14:30N 38°26' W 009°07'0 0.0
2018-May-15 14:00N 38°26' W 009°07'0 0.0
2018-May-15 13:30N 38°26' W 009°07'0 0.0
2018-May-15 13:00N 38°26' W 009°07'0 0.0
2018-May-15 10:02N 38°26' W 009°07'0 0.0
2018-May-15 09:39N 38°26' W 009°07'0 0.0
2018-May-15 09:30N 38°26' W 009°07'0 0.0
2018-May-15 08:57N 38°26' W 009°07'0 0.0
2018-May-15 08:28N 38°26' W 009°07'0 0.0
2018-May-15 08:00N 38°26' W 009°07'0 0.0
2018-May-15 07:29N 38°26' W 009°07'0 0.0
2018-May-15 06:53N 38°26' W 009°07'0 0.0
2018-May-15 06:30N 38°26' W 009°07'0 0.0
2018-May-15 06:00N 38°26' W 009°07'0 0.0
2018-May-15 05:27N 38°26' W 009°07'0 0.0
2018-May-15 04:58N 38°26' W 009°07'0 0.0
2018-May-15 04:13N 38°26' W 009°07'0 0.0
2018-May-15 03:59N 38°26' W 009°07'0 0.0
2018-May-15 03:30N 38°26' W 009°07'0 0.0
2018-May-15 02:59N 38°26' W 009°07'0 0.0
2018-May-15 02:30N 38°26' W 009°07'0 0.0
2018-May-15 01:57N 38°26' W 009°07'0 0.0
2018-May-15 01:30N 38°26' W 009°07'0 0.0
2018-May-15 00:58N 38°26' W 009°07'0 0.0
2018-May-15 00:30N 38°26' W 009°07'0 0.0
2018-May-14 23:52N 38°26' W 009°07'0 0.0
2018-May-14 22:16N 38°26' W 009°07'0 0.0
2018-May-14 21:24N 38°26' W 009°07'0 0.0
2018-May-14 20:53N 38°26' W 009°07'0 0.0
2018-May-14 20:17N 38°26' W 009°07'0 0.0
2018-May-14 19:53N 38°26' W 009°07'0 0.0
2018-May-14 19:30N 38°26' W 009°07'0 0.0
2018-May-14 18:58N 38°26' W 009°07'0 0.0
2018-May-14 18:29N 38°26' W 009°07'0 0.0
2018-May-14 17:57N 38°26' W 009°07'0 0.0
2018-May-14 17:19N 38°26' W 009°07'0 0.0
2018-May-14 15:00N 38°26' W 009°07'0 0.0
2018-May-14 14:30N 38°26' W 009°07'0 0.0
2018-May-14 13:55N 38°26' W 009°07'0 0.0
2018-May-14 13:28N 38°26' W 009°07'0 0.0
2018-May-14 05:34N 38°26' W 009°07'0 1.3
2018-May-14 05:29N 38°26' W 009°07'5 5.1
2018-May-14 04:25N 38°24' W 009°13'7 8.8
2018-May-14 03:37N 38°27' W 009°21'1 9.1
2018-May-14 03:30N 38°27' W 009°22'11 9.2
2018-May-14 02:15N 38°33' W 009°35'2 9.3
2018-May-14 02:00N 38°34' W 009°38'5 9.1
2018-May-14 01:30N 38°37' W 009°42'5 9.2
2018-May-14 01:00N 38°39' W 009°47'4 9.0
2018-May-14 00:30N 38°42' W 009°52'4 8.9
2018-May-14 00:00N 38°44' W 009°57'  
Track history (hours):
 
Tides and Currents Weather Stations Pressure Air Temp Water Temp Dewpoint Dewpoint Depression Visibility Wind Speed Wind Dir Waves Ship Positions

Estrela De Sesimbra

Last reported at 2018-May-23 14:40 UTC. Time now 2018-May-23 15:13 UTC.
Position N 38°26' W 009°07'.

Length 24 m; draft 3.2 m.

Type: Fishing. MMSI: 263208000.

Date/timePositionNaut miles runAvg speedWind from/ knotsBaromVisibWave heightAir tempDewpointWater temp
2018-May-23 14:40N 38°26' W 009°07'0 0.0
2018-May-23 14:23N 38°26' W 009°07'0 0.0
2018-May-23 14:00N 38°26' W 009°07'0 0.0
2018-May-23 13:31N 38°26' W 009°07'0 0.0
2018-May-23 12:57N 38°26' W 009°07'0 0.0
2018-May-23 12:30N 38°26' W 009°07'0 0.0
2018-May-23 12:00N 38°26' W 009°07'0 0.0
2018-May-23 11:31N 38°26' W 009°07'0 0.0
2018-May-23 11:01N 38°26' W 009°07'0 0.0
2018-May-23 10:30N 38°26' W 009°07'0 0.0
2018-May-23 10:00N 38°26' W 009°07'0 0.0
2018-May-23 09:28N 38°26' W 009°07'0 0.2
2018-May-23 08:47N 38°26' W 009°07'5 6.7
2018-May-23 08:00N 38°24' W 009°13'4 8.1
2018-May-23 07:30N 38°25' W 009°18'4 8.7
2018-May-23 06:59N 38°26' W 009°24'4 8.6
2018-May-23 06:28N 38°27' W 009°29'4 8.6
2018-May-23 06:00N 38°30' W 009°33'5 9.0
2018-May-23 05:30N 38°33' W 009°37'4 9.1
2018-May-23 05:00N 38°36' W 009°41'5 9.1
2018-May-23 04:29N 38°40' W 009°45'4 9.1
2018-May-23 04:00N 38°43' W 009°49'5 8.9
2018-May-23 03:29N 38°46' W 009°53'4 9.3
2018-May-23 03:01N 38°49' W 009°56'6 8.9
2018-May-23 02:17N 38°54' W 010°02'3 9.0
2018-May-23 02:00N 38°56' W 010°04'15 0.7
2018-May-22 03:49N 38°43' W 009°57'3 9.0
2018-May-22 03:27N 38°41' W 009°53'4 8.9
2018-May-22 03:00N 38°40' W 009°49'5 8.8
2018-May-22 02:29N 38°37' W 009°44'4 8.9
2018-May-22 01:59N 38°35' W 009°39'4 8.7
2018-May-22 01:30N 38°33' W 009°34'4 9.0
2018-May-22 01:00N 38°31' W 009°29'4 8.9
2018-May-22 00:30N 38°29' W 009°24'5 8.9
2018-May-21 23:58N 38°26' W 009°18'4 9.1
2018-May-21 23:30N 38°24' W 009°14'6 8.9
2018-May-21 22:51N 38°26' W 009°07'0 0.8
2018-May-21 22:26N 38°26' W 009°06'1 0.8
2018-May-21 21:33N 38°26' W 009°07'0 9.2
2018-May-21 21:30N 38°26' W 009°07'0 0.3
2018-May-21 20:02N 38°26' W 009°07'0 0.0
2018-May-21 19:54N 38°26' W 009°07'0 0.4
2018-May-21 19:25N 38°26' W 009°07'0 0.0
2018-May-21 18:57N 38°26' W 009°07'0 0.0
2018-May-21 18:30N 38°26' W 009°07'0 0.0
2018-May-21 17:56N 38°26' W 009°07'0 0.0
2018-May-21 17:30N 38°26' W 009°07'0 0.0
2018-May-21 17:00N 38°26' W 009°07'0 0.0
2018-May-21 16:25N 38°26' W 009°07'0 0.0
2018-May-21 15:57N 38°26' W 009°07'0 0.0
2018-May-21 15:06N 38°26' W 009°07'0 0.0
2018-May-21 11:28N 38°26' W 009°07'0 0.0
2018-May-21 10:53N 38°26' W 009°07'0 0.0
2018-May-21 10:24N 38°26' W 009°07'0 0.0
2018-May-21 09:59N 38°26' W 009°07'0 0.0
2018-May-21 09:26N 38°26' W 009°07'0 0.0
2018-May-21 08:58N 38°26' W 009°07'0 0.0
2018-May-21 07:41N 38°26' W 009°07'0 0.0
2018-May-21 07:22N 38°26' W 009°07'0 0.0
2018-May-21 05:21N 38°26' W 009°07'0 0.0
2018-May-21 04:59N 38°26' W 009°07'0 0.0
2018-May-21 04:30N 38°26' W 009°07'0 0.0
2018-May-21 04:00N 38°26' W 009°07'0 0.0
2018-May-21 03:29N 38°26' W 009°07'0 0.0
2018-May-21 03:00N 38°26' W 009°07'0 0.0
2018-May-21 02:30N 38°26' W 009°07'0 0.0
2018-May-21 02:00N 38°26' W 009°07'0 0.0
2018-May-21 01:28N 38°26' W 009°07'0 0.0
2018-May-21 01:00N 38°26' W 009°07'0 0.0
2018-May-21 00:30N 38°26' W 009°07'0 0.0
2018-May-21 00:00N 38°26' W 009°07'0 0.0
2018-May-20 23:30N 38°26' W 009°07'0 0.0
2018-May-20 23:00N 38°26' W 009°07'0 0.0
2018-May-20 22:30N 38°26' W 009°07'0 0.0
2018-May-20 22:00N 38°26' W 009°07'0 0.0
2018-May-20 21:29N 38°26' W 009°07'0 0.0
2018-May-20 21:00N 38°26' W 009°07'0 0.0
2018-May-20 20:30N 38°26' W 009°07'0 0.0
2018-May-20 19:59N 38°26' W 009°07'0 0.0
2018-May-20 19:30N 38°26' W 009°07'0 0.0
2018-May-20 19:00N 38°26' W 009°07'0 0.0
2018-May-20 18:27N 38°26' W 009°07'0 0.0
2018-May-20 18:00N 38°26' W 009°07'0 0.3
2018-May-20 17:27N 38°26' W 009°07'0 0.0
2018-May-20 17:00N 38°26' W 009°07'4 5.8
2018-May-20 16:16N 38°24' W 009°12'2 9.1
2018-May-20 16:00N 38°25' W 009°14'5 9.2
2018-May-20 15:30N 38°27' W 009°19'5 9.1
2018-May-20 15:00N 38°29' W 009°24'5 9.4
2018-May-20 14:30N 38°32' W 009°30'5 9.4
2018-May-20 14:00N 38°35' W 009°34'5 9.5
2018-May-20 13:30N 38°37' W 009°39'5 9.2
2018-May-20 13:00N 38°40' W 009°44'5 9.0
2018-May-20 12:30N 38°42' W 009°49'4 8.9
2018-May-20 12:00N 38°45' W 009°54'5 9.3
2018-May-20 11:30N 38°48' W 009°59'13 9.2
2018-May-20 10:05N 38°55' W 010°13'3 9.6
2018-May-20 09:49N 38°56' W 010°15'0 0.0
2018-May-20 04:46N 38°56' W 010°16'1 0.7
2018-May-20 03:56N 38°56' W 010°15'1 0.7
2018-May-20 02:33N 38°55' W 010°16'0 0.8
2018-May-20 02:27N 38°55' W 010°16'1 0.6
2018-May-20 00:16N 38°53' W 010°15'0 0.5
2018-May-19 23:56N 38°53' W 010°15'5 2.1
2018-May-19 21:22N 38°57' W 010°20'1 1.5
2018-May-19 20:58N 38°57' W 010°20'1 1.4
2018-May-19 20:30N 38°58' W 010°20'2 2.9
2018-May-19 19:58N 38°59' W 010°21'3 6.4
2018-May-19 19:30N 39°02' W 010°23'3 6.4
2018-May-19 19:00N 39°05' W 010°25'3 3.8
2018-May-19 18:10N 39°07' W 010°23'1 4.0
2018-May-19 18:00N 39°08' W 010°22'2 3.4
2018-May-19 17:29N 39°09' W 010°20'29 1.7
2018-May-19 00:31N 38°46' W 009°56'1 8.5
2018-May-19 00:24N 38°46' W 009°55'5 8.8
2018-May-18 23:53N 38°43' W 009°50'3 8.6
2018-May-18 23:30N 38°41' W 009°46'4 8.5
2018-May-18 23:00N 38°39' W 009°42'4 8.2
2018-May-18 22:30N 38°37' W 009°38'4 8.1
2018-May-18 22:00N 38°35' W 009°33'4 8.5
2018-May-18 21:30N 38°32' W 009°29'4 8.4
2018-May-18 21:00N 38°30' W 009°24'4 8.6
2018-May-18 20:30N 38°27' W 009°20'4 8.7
2018-May-18 20:00N 38°25' W 009°15'6 8.4
2018-May-18 19:17N 38°26' W 009°07'1 2.7
2018-May-18 19:00N 38°26' W 009°07'0 0.0
2018-May-18 18:26N 38°26' W 009°07'0 0.0
2018-May-18 13:37N 38°26' W 009°07'0 0.0
2018-May-18 13:25N 38°26' W 009°07'0 0.0
2018-May-18 13:00N 38°26' W 009°07'0 0.0
2018-May-18 12:30N 38°26' W 009°07'0 0.0
2018-May-18 11:59N 38°26' W 009°07'0 0.0
2018-May-18 11:17N 38°26' W 009°07'0 0.0
2018-May-18 10:55N 38°26' W 009°07'0 0.0
2018-May-18 10:21N 38°26' W 009°07'0 0.0
2018-May-18 10:01N 38°26' W 009°07'0 0.0
2018-May-18 09:30N 38°26' W 009°07'0 0.0
2018-May-18 09:00N 38°26' W 009°07'5 6.6
2018-May-18 08:13N 38°24' W 009°13'2 8.7
2018-May-18 07:59N 38°24' W 009°15'5 8.7
2018-May-18 07:25N 38°25' W 009°22'4 9.2
2018-May-18 07:01N 38°27' W 009°26'5 9.0
2018-May-18 06:26N 38°30' W 009°31'5 9.2
2018-May-18 05:56N 38°33' W 009°36'4 9.2
2018-May-18 05:31N 38°35' W 009°39'4 8.8
2018-May-18 05:00N 38°38' W 009°44'4 8.9
2018-May-18 04:30N 38°40' W 009°49'5 9.0
2018-May-18 03:58N 38°43' W 009°54'5 8.6
2018-May-18 03:25N 38°46' W 009°59'21 5.9
2018-May-17 23:52N 38°60' W 010°18'2 1.8
2018-May-17 22:55N 38°59' W 010°19'0 0.7
2018-May-17 22:27N 38°59' W 010°20'11 0.6
2018-May-17 05:01N 39°10' W 010°19'4 3.6
2018-May-17 03:58N 39°14' W 010°20'6 7.3
2018-May-17 03:10N 39°08' W 010°21'1 7.0
2018-May-17 02:59N 39°07' W 010°21'4 7.4
2018-May-17 02:30N 39°03' W 010°21'1 2.9
2018-May-17 02:00N 39°02' W 010°23'9 4.9
2018-May-17 00:11N 38°56' W 010°15'1 6.7
2018-May-16 23:58N 38°55' W 010°14'7 8.1
2018-May-16 23:08N 38°50' W 010°07'1 8.1
2018-May-16 23:00N 38°50' W 010°06'4 8.1
2018-May-16 22:30N 38°47' W 010°02'4 8.1
2018-May-16 21:58N 38°44' W 009°58'4 7.7
2018-May-16 21:30N 38°43' W 009°54'4 8.1
2018-May-16 21:00N 38°41' W 009°49'4 8.0
2018-May-16 20:30N 38°38' W 009°45'4 7.7
2018-May-16 20:00N 38°36' W 009°41'4 7.6
2018-May-16 19:30N 38°34' W 009°37'4 7.7
2018-May-16 18:59N 38°33' W 009°32'4 7.8
2018-May-16 18:30N 38°31' W 009°28'4 7.8
2018-May-16 18:01N 38°29' W 009°24'4 7.8
2018-May-16 17:29N 38°27' W 009°19'4 8.0
2018-May-16 17:01N 38°25' W 009°15'4 8.3
2018-May-16 16:29N 38°25' W 009°09'3 5.6
2018-May-16 16:01N 38°26' W 009°07'0 0.0
2018-May-16 15:30N 38°26' W 009°07'0 0.0
2018-May-16 15:00N 38°26' W 009°07'0 0.0
2018-May-16 14:31N 38°26' W 009°07'0 0.0
2018-May-16 14:00N 38°26' W 009°07'0 0.0
2018-May-16 13:30N 38°26' W 009°07'0 0.0
2018-May-16 12:59N 38°26' W 009°07'0 0.0
2018-May-16 12:28N 38°26' W 009°07'0 0.0
2018-May-16 12:01N 38°26' W 009°07'0 0.0
2018-May-16 11:28N 38°26' W 009°07'0 0.0
2018-May-16 11:00N 38°26' W 009°07'0 0.0
2018-May-16 10:30N 38°26' W 009°07'0 0.0
2018-May-16 10:01N 38°26' W 009°07'0 0.0
2018-May-16 09:31N 38°26' W 009°07'0 0.0
2018-May-16 09:00N 38°26' W 009°07'0 0.0
2018-May-16 08:31N 38°26' W 009°07'0 0.0
2018-May-16 08:00N 38°26' W 009°07'0 0.0
2018-May-16 07:29N 38°26' W 009°07'0 0.0
2018-May-16 07:00N 38°26' W 009°07'0 0.0
2018-May-16 06:30N 38°26' W 009°07'0 0.0
2018-May-16 06:00N 38°26' W 009°07'0 0.0
2018-May-16 05:30N 38°26' W 009°07'0 0.0
2018-May-16 05:00N 38°26' W 009°07'0 0.0
2018-May-16 04:30N 38°26' W 009°07'0 0.0
2018-May-16 04:00N 38°26' W 009°07'0 0.0
2018-May-16 03:30N 38°26' W 009°07'0 0.0
2018-May-16 03:00N 38°26' W 009°07'0 0.0
2018-May-16 02:29N 38°26' W 009°07'0 0.0
2018-May-16 01:59N 38°26' W 009°07'0 0.0
2018-May-16 01:30N 38°26' W 009°07'0 0.0
2018-May-16 00:59N 38°26' W 009°07'0 0.0
2018-May-16 00:30N 38°26' W 009°07'0 0.0
2018-May-16 00:00N 38°26' W 009°07'0 0.0
2018-May-15 23:30N 38°26' W 009°07'0 0.0
2018-May-15 23:00N 38°26' W 009°07'0 0.0
2018-May-15 22:30N 38°26' W 009°07'0 0.0
2018-May-15 22:00N 38°26' W 009°07'0 0.0
2018-May-15 21:29N 38°26' W 009°07'0 0.0
2018-May-15 20:59N 38°26' W 009°07'0 0.0
2018-May-15 20:30N 38°26' W 009°07'0 0.0
2018-May-15 19:59N 38°26' W 009°07'0 0.0
2018-May-15 19:29N 38°26' W 009°07'0 0.0
2018-May-15 19:00N 38°26' W 009°07'0 0.0
2018-May-15 18:30N 38°26' W 009°07'0 0.0
2018-May-15 18:00N 38°26' W 009°07'0 0.0
2018-May-15 17:30N 38°26' W 009°07'0 0.0
2018-May-15 16:53N 38°26' W 009°07'0 0.0
2018-May-15 16:27N 38°26' W 009°07'0 0.0
2018-May-15 15:58N 38°26' W 009°07'0 0.0
2018-May-15 15:30N 38°26' W 009°07'0 0.0
2018-May-15 15:00N 38°26' W 009°07'0 0.0
2018-May-15 14:30N 38°26' W 009°07'0 0.0
2018-May-15 14:00N 38°26' W 009°07'0 0.0
2018-May-15 13:30N 38°26' W 009°07'0 0.0
2018-May-15 13:00N 38°26' W 009°07'0 0.0
2018-May-15 10:02N 38°26' W 009°07'0 0.0
2018-May-15 09:39N 38°26' W 009°07'0 0.0
2018-May-15 09:30N 38°26' W 009°07'0 0.0
2018-May-15 08:57N 38°26' W 009°07'0 0.0
2018-May-15 08:28N 38°26' W 009°07'0 0.0
2018-May-15 08:00N 38°26' W 009°07'0 0.0
2018-May-15 07:29N 38°26' W 009°07'0 0.0
2018-May-15 06:53N 38°26' W 009°07'0 0.0
2018-May-15 06:30N 38°26' W 009°07'0 0.0
2018-May-15 06:00N 38°26' W 009°07'0 0.0
2018-May-15 05:27N 38°26' W 009°07'0 0.0
2018-May-15 04:58N 38°26' W 009°07'0 0.0
2018-May-15 04:13N 38°26' W 009°07'0 0.0
2018-May-15 03:59N 38°26' W 009°07'0 0.0
2018-May-15 03:30N 38°26' W 009°07'0 0.0
2018-May-15 02:59N 38°26' W 009°07'0 0.0
2018-May-15 02:30N 38°26' W 009°07'0 0.0
2018-May-15 01:57N 38°26' W 009°07'0 0.0
2018-May-15 01:30N 38°26' W 009°07'0 0.0
2018-May-15 00:58N 38°26' W 009°07'0 0.0
2018-May-15 00:30N 38°26' W 009°07'0 0.0
2018-May-14 23:52N 38°26' W 009°07'0 0.0
2018-May-14 22:16N 38°26' W 009°07'0 0.0
2018-May-14 21:24N 38°26' W 009°07'0 0.0
2018-May-14 20:53N 38°26' W 009°07'0 0.0
2018-May-14 20:17N 38°26' W 009°07'0 0.0
2018-May-14 19:53N 38°26' W 009°07'0 0.0
2018-May-14 19:30N 38°26' W 009°07'0 0.0
2018-May-14 18:58N 38°26' W 009°07'0 0.0
2018-May-14 18:29N 38°26' W 009°07'0 0.0
2018-May-14 17:57N 38°26' W 009°07'0 0.0
2018-May-14 17:19N 38°26' W 009°07'0 0.0
2018-May-14 15:00N 38°26' W 009°07'0 0.0
2018-May-14 14:30N 38°26' W 009°07'0 0.0
2018-May-14 13:55N 38°26' W 009°07'0 0.0
2018-May-14 13:28N 38°26' W 009°07'0 0.0
2018-May-14 05:34N 38°26' W 009°07'0 1.3
2018-May-14 05:29N 38°26' W 009°07'5 5.1
2018-May-14 04:25N 38°24' W 009°13'7 8.8
2018-May-14 03:37N 38°27' W 009°21'1 9.1
2018-May-14 03:30N 38°27' W 009°22'11 9.2
2018-May-14 02:15N 38°33' W 009°35'2 9.3
2018-May-14 02:00N 38°34' W 009°38'5 9.1
2018-May-14 01:30N 38°37' W 009°42'5 9.2
2018-May-14 01:00N 38°39' W 009°47'4 9.0
2018-May-14 00:30N 38°42' W 009°52'4 8.9
2018-May-14 00:00N 38°44' W 009°57'  

Dump ship's entire track history